Lavista, Nebraska
Current Conditions -  °F | °C
As of 2:35 PM on Monday 24 Nov 2014 (Local Time) from KMLE Reporting Station
Clear Clear  
Wind Chill: 26°   Ceiling: Unl
Heat Index: 37°   Visibility: 10mi
Dew Point: 18°   Wind: 20mph
Humidity: 46%   Direction: 310°NW
Pressure: 29.8"   Gusts: 35mph
Location:  41.166°N, 96.0444°W
Report Text: KMLE 242035Z AUTO 31017G30KT 10SM CLR 03/M08 A2980 RMK AO2 T00271080
Loading
Personal Weather Stations






























Interactive Weather Map New forecast layout! Learn more

10-Day Weather Forecast

Advertisements
Track Severe Weather on mobile